Data for 12/24/2016

Time Sea-Level Adjusted Pressure Absolute Pressure Temperature Relative Humidity Dew Point   
(mb) (inHg) (mb) (inHg) (C) (F) (%) (C) (F)
00:05 1008 29.77 837 24.72 -2.3 27.8 65 -8 17.6
00:10 1008 29.77 837 24.72 -2 28.5 64 -7.9 17.8
00:15 1008 29.77 837 24.72 -1.7 29 64 -7.6 18.3
00:20 1008 29.77 837 24.72 -1.6 29.1 63 -7.7 18.2
00:25 1008 29.77 837 24.72 -1.4 29.4 63 -7.7 18.2
00:30 1008 29.77 837 24.72 -1.5 29.3 64 -7.5 18.6
00:35 1008 29.77 837 24.72 -1.1 30 62 -7.6 18.4
00:40 1008 29.77 837 24.72 -0.9 30.4 61 -7.5 18.6
00:45 1008 29.77 837 24.72 -0.7 30.8 60 -7.4 18.6
00:50 1008 29.77 837 24.72 -0.7 30.8 60 -7.5 18.5
00:55 1008 29.77 837 24.72 -0.2 31.6 58 -7.5 18.4
01:00 1008 29.77 837 24.72 -0.2 31.7 59 -7.3 18.8
01:05 1008 29.77 837 24.72 -0.2 31.7 58 -7.4 18.7
01:10 1008 29.77 837 24.72 -0 32 58 -7.3 18.8
01:15 1008 29.77 837 24.72 -0.1 31.8 59 -7.3 18.9
01:20 1008 29.77 837 24.72 -0.3 31.4 60 -7.1 19.2
01:25 1008 29.77 837 24.72 -0.5 31 60 -7.3 18.9
01:30 1008 29.77 837 24.72 -0.5 31 61 -7.2 19
01:35 1008 29.77 837 24.72 -0.7 30.8 62 -7.1 19.3
01:40 1008 29.77 837 24.72 -0.5 31 61 -7.1 19.1
01:45 1008 29.77 837 24.72 -1 30.2 64 -7 19.3
01:50 1008 29.77 837 24.72 -1.5 29.2 65 -7.3 18.9
01:55 1007 29.74 837 24.72 -1.7 29 65 -7.4 18.6
02:00 1007 29.74 837 24.72 -1.6 29.2 65 -7.3 18.9
02:05 1007 29.74 837 24.72 -1.7 29 66 -7.3 18.9
02:10 1007 29.74 837 24.72 -1.8 28.7 66 -7.3 18.8
02:15 1007 29.74 837 24.72 -2.1 28.1 68 -7.3 18.9
02:20 1008 29.77 837 24.72 -2.6 27.2 69 -7.5 18.5
02:25 1008 29.77 837 24.72 -3 26.7 70 -7.8 18
02:30 1008 29.77 837 24.72 -3.4 25.9 70 -8.1 17.4
02:35 1008 29.77 837 24.72 -3.5 25.7 68 -8.5 16.7
02:40 1008 29.77 837 24.72 -3.5 25.7 68 -8.6 16.5
02:45 1008 29.77 837 24.72 -3.5 25.7 68 -8.5 16.7
02:50 1008 29.77 837 24.72 -3.5 25.6 68 -8.6 16.5
02:55 1008 29.77 837 24.72 -3.4 25.8 67 -8.7 16.4
03:00 1008 29.77 837 24.72 -3.3 26 67 -8.7 16.4
03:05 1008 29.77 837 24.72 -3.3 26.1 60 -10 14
03:10 1008 29.77 837 24.72 -2.9 26.7 65 -8.7 16.3
03:15 1008 29.77 837 24.72 -3 26.6 66 -8.5 16.6
03:20 1008 29.77 837 24.72 -2.9 26.7 65 -8.6 16.5
03:25 1008 29.77 837 24.72 -2.9 26.9 66 -8.4 16.8
03:30 1008 29.77 837 24.72 -2.9 26.7 66 -8.5 16.8
03:35 1008 29.77 837 24.72 -2.9 26.8 65 -8.5 16.7
03:40 1008 29.77 837 24.72 -2.5 27.5 66 -8.1 17.5
03:45 1008 29.77 837 24.72 -3.2 26.3 66 -8.7 16.3
03:50 1008 29.77 837 24.72 -3.6 25.5 65 -9.4 15.2
03:55 1008 29.77 837 24.72 -3.6 25.5 66 -9.2 15.5
04:00 1008 29.77 837 24.72 -3.4 25.9 69 -8.2 17.2
04:05 1008 29.77 837 24.72 -3.6 25.5 70 -8.4 16.9
04:10 1008 29.77 837 24.72 -3.6 25.5 68 -8.6 16.5
04:15 1008 29.77 837 24.72 -3.6 25.6 69 -8.5 16.7
04:20 1008 29.77 837 24.72 -3.4 25.9 67 -8.6 16.6
04:25 1008 29.77 837 24.72 -3 26.6 67 -8.3 17.1
04:30 1008 29.77 837 24.72 -2.9 26.7 68 -8 17.5
04:35 1008 29.77 837 24.72 -2.7 27.1 67 -8 17.6
04:40 1008 29.77 837 24.72 -2.5 27.5 66 -8.1 17.5
04:45 1008 29.77 837 24.72 -3.2 26.2 68 -8.2 17.2
04:50 1008 29.77 837 24.72 -3.6 25.5 69 -8.5 16.7
04:55 1007 29.74 837 24.72 -3.8 25.2 71 -8.3 17
05:00 1007 29.74 837 24.72 -3.9 24.9 71 -8.5 16.7
05:05 1007 29.74 837 24.72 -4.2 24.4 72 -8.5 16.7
05:10 1007 29.74 837 24.72 -4.5 23.8 73 -8.6 16.5
05:15 1007 29.74 837 24.72 -4.6 23.8 74 -8.6 16.6
05:20 1007 29.74 837 24.72 -4.6 23.7 74 -8.6 16.5
05:25 1007 29.74 837 24.72 -4.7 23.6 74 -8.7 16.4
05:30 1007 29.74 837 24.72 -4.6 23.7 75 -8.4 16.8
05:35 1007 29.74 836 24.69 -4.5 24 72 -8.8 16.2
05:40 1007 29.74 836 24.69 -4.4 24.1 73 -8.5 16.6
05:45 1007 29.74 836 24.69 -4.7 23.5 74 -8.6 16.4
05:50 1007 29.74 836 24.69 -4.7 23.5 73 -8.8 16.1
05:55 1007 29.74 836 24.69 -4.9 23.2 75 -8.6 16.5
06:00 1007 29.74 836 24.69 -4 24.8 72 -8.3 17
06:05 1007 29.74 836 24.69 -3.6 25.4 71 -8.1 17.3
06:10 1007 29.74 836 24.69 -3.8 25.1 73 -8 17.5
06:15 1007 29.74 836 24.69 -3.7 25.3 76 -7.4 18.7
06:20 1007 29.74 836 24.69 -4.4 24 73 -8.5 16.7
06:25 1007 29.74 836 24.69 -4.6 23.7 73 -8.7 16.3
06:30 1007 29.74 836 24.69 -4.9 23.2 81 -7.7 18.1
06:35 1007 29.74 836 24.69 -4.1 24.6 70 -8.8 16.2
06:40 1007 29.74 836 24.69 -4.2 24.4 73 -8.3 17.1
06:45 1007 29.74 836 24.69 -4.6 23.8 75 -8.3 17.1
06:50 1007 29.74 836 24.69 -4.6 23.7 73 -8.7 16.4
06:55 1007 29.74 836 24.69 -4.8 23.4 74 -8.7 16.3
07:00 1007 29.74 836 24.69 -4.7 23.6 73 -8.8 16.1
07:05 1007 29.74 836 24.69 -5.1 22.9 76 -8.7 16.3
07:10 1007 29.74 836 24.69 -5.3 22.5 75 -9 15.7
07:15 1007 29.74 836 24.69 -5.2 22.6 74 -9.1 15.6
07:20 1007 29.74 836 24.69 -5.2 22.7 74 -9.2 15.5
07:25 1007 29.74 836 24.69 -4.8 23.4 76 -8.4 16.8
07:30 1007 29.74 836 24.69 -4.2 24.5 73 -8.2 17.2
07:35 1007 29.74 836 24.69 -4.3 24.2 74 -8.3 17
07:40 1006 29.71 836 24.69 -4.5 23.9 74 -8.4 16.9
07:45 1006 29.71 836 24.69 -4.3 24.3 73 -8.5 16.7
07:50 1006 29.71 835 24.66 -3.6 25.5 70 -8.3 17.1
07:55 1006 29.71 835 24.66 -2.9 26.8 68 -8 17.7
08:00 1006 29.71 835 24.66 -2.7 27.2 67 -8 17.6
08:05 1006 29.71 835 24.66 -2.6 27.3 67 -8 17.6
08:10 1006 29.71 835 24.66 -2.5 27.5 67 -7.9 17.8
08:15 1006 29.71 835 24.66 -2.4 27.7 66 -7.9 17.7
08:20 1006 29.71 835 24.66 -2.2 28.1 66 -7.8 18
08:25 1006 29.71 835 24.66 -1.9 28.6 64 -7.8 18
08:30 1006 29.71 835 24.66 -1.6 29.2 63 -7.6 18.2
08:35 1006 29.71 835 24.66 -1.2 29.8 63 -7.5 18.5
08:40 1006 29.71 835 24.66 -1.2 29.8 63 -7.5 18.6
08:45 1006 29.71 835 24.66 -1.2 29.8 63 -7.3 18.8
08:50 1006 29.71 835 24.66 -1.5 29.3 65 -7.3 18.8
08:55 1006 29.71 835 24.66 -1.7 29 65 -7.4 18.7
09:00 1006 29.71 836 24.69 -1.8 28.7 66 -7.4 18.7
09:05 1006 29.71 836 24.69 -1.9 28.6 65 -7.5 18.5
09:10 1006 29.71 835 24.66 -1.8 28.8 65 -7.5 18.6
09:15 1006 29.71 835 24.66 -1.9 28.6 66 -7.5 18.5
09:20 1006 29.71 835 24.66 -1.9 28.6 65 -7.6 18.4
09:25 1006 29.71 835 24.66 -2.4 27.7 69 -7.3 18.9
09:30 1006 29.71 835 24.66 -3.7 25.4 72 -8 17.7
09:35 1006 29.71 835 24.66 -4.3 24.3 74 -8.3 17.1
09:40 1006 29.71 835 24.66 -4.7 23.6 76 -8.4 16.9
09:45 1006 29.71 835 24.66 -4.9 23.3 76 -8.5 16.7
09:50 1006 29.71 835 24.66 -4.9 23.1 77 -8.4 16.8
09:55 1006 29.71 835 24.66 -5 23.1 77 -8.5 16.7
10:00 1006 29.71 835 24.66 -4.8 23.3 76 -8.4 16.9
10:05 1006 29.71 835 24.66 -4.6 23.7 76 -8.2 17.2
10:10 1006 29.71 835 24.66 -4.3 24.2 75 -8 17.5
10:15 1006 29.71 835 24.66 -3.6 25.5 70 -8.4 16.9
10:20 1006 29.71 835 24.66 -2.1 28.1 63 -8.2 17.2
10:25 1006 29.71 835 24.66 -0.9 30.4 58 -8.1 17.3
10:30 1006 29.71 835 24.66 -0.5 31.2 56 -8.3 17.1
10:35 1005 29.68 835 24.66 -0.5 31.2 55 -8.4 16.9
10:40 1005 29.68 835 24.66 -0.5 31.1 55 -8.5 16.7
10:45 1006 29.71 835 24.66 -0.6 30.9 54 -8.8 16.1
10:50 1006 29.71 835 24.66 -0.8 30.5 53 -9.4 15.2
10:55 1005 29.68 835 24.66 -0.8 30.6 52 -9.5 14.9
11:00 1005 29.68 835 24.66 -0.6 30.9 50 -9.7 14.5
11:05 1005 29.68 835 24.66 -0.8 30.5 50 -10 14
11:10 1005 29.68 835 24.66 -0.8 30.6 50 -10 14.1
11:15 1005 29.68 835 24.66 -0.8 30.6 48 -10.5 13.1
11:20 1005 29.68 835 24.66 -0.5 31.1 46 -10.7 12.7
11:25 1005 29.68 835 24.66 -0.5 31.1 46 -10.7 12.7
11:30 1005 29.68 835 24.66 -0.6 30.9 47 -10.7 12.7
11:35 1005 29.68 835 24.66 -0.7 30.8 47 -10.7 12.7
11:40 1005 29.68 835 24.66 -0.8 30.6 47 -10.6 12.8
11:45 1005 29.68 834 24.63 -0.9 30.4 48 -10.5 13
11:50 1005 29.68 835 24.66 -0.8 30.5 47 -10.8 12.5
11:55 1005 29.68 835 24.66 -0.8 30.6 47 -10.6 12.9
12:00 1005 29.68 835 24.66 -0.7 30.7 48 -10.4 13.3
12:05 1005 29.68 834 24.63 -0.6 30.9 48 -10.3 13.5
12:10 1005 29.68 834 24.63 -0.5 31 48 -10.4 13.3
12:15 1005 29.68 834 24.63 -0.5 31.1 47 -10.4 13.2
12:20 1005 29.68 834 24.63 -0.7 30.8 48 -10.3 13.5
12:25 1005 29.68 834 24.63 -0.8 30.5 49 -10.2 13.6
12:30 1005 29.68 834 24.63 -1 30.3 50 -10.1 13.7
12:35 1005 29.68 834 24.63 -1.1 30 51 -10.2 13.7
12:40 1005 29.68 834 24.63 -1.2 29.8 51 -10 14
12:45 1005 29.68 834 24.63 -1.2 29.9 52 -9.9 14.2
12:50 1005 29.68 834 24.63 -1.1 30 52 -9.9 14.2
12:55 1004 29.65 834 24.63 -1 30.1 51 -9.8 14.3
13:00 1004 29.65 834 24.63 -1.2 29.9 52 -9.9 14.2
13:05 1004 29.65 834 24.63 -1.2 29.8 52 -10 14.1
13:10 1004 29.65 834 24.63 -1.4 29.6 53 -9.7 14.5
13:15 1004 29.65 834 24.63 -1.5 29.3 52 -10.1 13.9
13:20 1004 29.65 833 24.6 -1.5 29.3 53 -9.8 14.4
13:25 1004 29.65 833 24.6 -1.6 29.1 55 -9.6 14.7
13:30 1004 29.65 833 24.6 -1.9 28.6 56 -9.7 14.6
13:35 1004 29.65 833 24.6 -2 28.3 56 -9.7 14.5
13:40 1004 29.65 833 24.6 -2.1 28.2 57 -9.6 14.7
13:45 1004 29.65 833 24.6 -2 28.4 57 -9.6 14.8
13:50 1004 29.65 833 24.6 -1.8 28.7 55 -9.7 14.6
13:55 1004 29.65 833 24.6 -1.7 29 56 -9.4 15
14:00 1004 29.65 833 24.6 -1.7 28.9 57 -9.3 15.3
14:05 1004 29.65 833 24.6 -1.8 28.7 57 -9.4 15.1
14:10 1004 29.65 833 24.6 -1.9 28.5 57 -9.3 15.2
14:15 1004 29.65 833 24.6 -2 28.4 57 -9.4 15
14:20 1004 29.65 833 24.6 -2.1 28.2 57 -9.5 15
14:25 1004 29.65 833 24.6 -2.2 28 58 -9.3 15.2
14:30 1003 29.62 833 24.6 -2.1 28.2 58 -9.3 15.3
14:35 1003 29.62 833 24.6 -2.1 28.1 58 -9.3 15.3
14:40 1003 29.62 833 24.6 -2.2 28 59 -9.1 15.5
14:45 1003 29.62 833 24.6 -2.2 28.1 60 -9 15.8
14:50 1003 29.62 833 24.6 -2.2 28.1 59 -9.2 15.5
14:55 1003 29.62 833 24.6 -2.1 28.2 59 -9.1 15.6
15:00 1003 29.62 833 24.6 -2.3 27.9 60 -9.1 15.6
15:05 1003 29.62 833 24.6 -2.5 27.5 60 -9.3 15.2
15:10 1003 29.62 833 24.6 -2.7 27.2 59 -9.6 14.7
15:15 1004 29.65 833 24.6 -2.7 27.1 59 -9.7 14.6
15:20 1003 29.62 833 24.6 -2.8 27 58 -9.9 14.1
15:25 1003 29.62 833 24.6 -2.9 26.8 58 -10 14
15:30 1003 29.62 833 24.6 -2.9 26.7 58 -10.1 13.8
15:35 1003 29.62 832 24.57 -2.9 26.7 57 -10.3 13.5
15:40 1003 29.62 832 24.57 -3 26.6 58 -10.2 13.6
15:45 1003 29.62 832 24.57 -3 26.6 57 -10.3 13.4
15:50 1003 29.62 833 24.6 -3 26.6 57 -10.3 13.4
15:55 1003 29.62 833 24.6 -3 26.6 57 -10.3 13.4
16:00 1003 29.62 832 24.57 -3 26.5 57 -10.4 13.2
16:05 1003 29.62 832 24.57 -3 26.6 57 -10.4 13.3
16:10 1003 29.62 832 24.57 -3.1 26.5 56 -10.6 13
16:15 1003 29.62 832 24.57 -3.2 26.3 56 -10.7 12.8
16:20 1003 29.62 833 24.6 -3.2 26.2 56 -10.8 12.6
16:25 1003 29.62 833 24.6 -3.2 26.2 56 -10.8 12.5
16:30 1003 29.62 832 24.57 -3.2 26.3 54 -11.1 11.9
16:35 1003 29.62 833 24.6 -3.2 26.3 54 -11.3 11.7
16:40 1003 29.62 833 24.6 -3.2 26.3 54 -11.3 11.7
16:45 1003 29.62 833 24.6 -3.2 26.2 53 -11.4 11.5
16:50 1003 29.62 833 24.6 -3.3 26.1 52 -11.8 10.8
16:55 1003 29.62 833 24.6 -3.3 26.1 52 -11.7 10.9
17:00 1004 29.65 833 24.6 -3.5 25.7 53 -11.7 10.9
17:05 1004 29.65 833 24.6 -3.6 25.5 53 -11.7 10.9
17:10 1004 29.65 833 24.6 -3.6 25.5 54 -11.5 11.3
17:15 1004 29.65 833 24.6 -3.7 25.3 55 -11.5 11.3
17:20 1004 29.65 833 24.6 -3.9 25 56 -11.4 11.5
17:25 1004 29.65 833 24.6 -4.1 24.6 57 -11.3 11.6
17:30 1004 29.65 833 24.6 -4.3 24.3 58 -11.3 11.7
17:35 1004 29.65 833 24.6 -4.4 24 59 -11.2 11.8
17:40 1004 29.65 833 24.6 -4.5 23.8 60 -11.2 11.9
17:45 1004 29.65 833 24.6 -4.6 23.8 60 -11.1 12
17:50 1004 29.65 833 24.6 -4.7 23.6 61 -11.2 11.9
17:55 1004 29.65 833 24.6 -4.7 23.5 60 -11.2 11.8
18:00 1004 29.65 833 24.6 -4.7 23.5 61 -11.2 11.9
18:05 1004 29.65 833 24.6 -4.7 23.5 61 -11.1 12
18:10 1004 29.65 833 24.6 -4.7 23.5 61 -11.1 11.9
18:15 1004 29.65 834 24.63 -4.8 23.4 62 -11 12.2
18:20 1004 29.65 834 24.63 -4.9 23.2 62 -11.1 12
18:25 1004 29.65 834 24.63 -4.9 23.2 62 -11.1 12
18:30 1004 29.65 834 24.63 -5 23.1 62 -11.2 11.9
18:35 1005 29.68 834 24.63 -4.9 23.2 61 -11.2 11.8
18:40 1005 29.68 834 24.63 -4.8 23.3 61 -11.2 11.8
18:45 1005 29.68 834 24.63 -4.8 23.3 62 -11.1 12.1
18:50 1005 29.68 834 24.63 -4.8 23.4 62 -11 12.3
18:55 1005 29.68 834 24.63 -4.8 23.4 62 -10.9 12.4
19:00 1005 29.68 834 24.63 -4.8 23.4 62 -10.9 12.4
19:05 1005 29.68 834 24.63 -4.6 23.7 62 -10.8 12.5
19:10 1005 29.68 834 24.63 -4.8 23.4 63 -10.8 12.5
19:15 1005 29.68 834 24.63 -4.8 23.3 63 -10.9 12.3
19:20 1005 29.68 834 24.63 -4.9 23.2 63 -10.9 12.4
19:25 1005 29.68 834 24.63 -4.9 23.1 63 -10.9 12.4
19:30 1005 29.68 834 24.63 -5 23.1 63 -10.9 12.4
19:35 1005 29.68 834 24.63 -5 23 63 -10.9 12.3
19:40 1005 29.68 834 24.63 -5 23 63 -11 12.3
19:45 1005 29.68 834 24.63 -5 23 63 -11 12.2
19:50 1005 29.68 834 24.63 -5 23.1 63 -11 12.1
19:55 1005 29.68 834 24.63 -4.7 23.5 62 -11 12.2
20:00 1005 29.68 834 24.63 -4.7 23.6 61 -11.1 12.1
20:05 1005 29.68 834 24.63 -4.8 23.4 62 -11 12.2
20:10 1005 29.68 834 24.63 -4.9 23.2 63 -11 12.3
20:15 1005 29.68 834 24.63 -5 23 64 -10.9 12.4
20:20 1005 29.68 834 24.63 -5.3 22.5 65 -10.9 12.4
20:25 1005 29.68 834 24.63 -5.5 22.1 66 -10.9 12.5
20:30 1005 29.68 834 24.63 -5.7 21.8 67 -10.8 12.6
20:35 1005 29.68 834 24.63 -5.8 21.6 68 -10.8 12.6
20:40 1005 29.68 834 24.63 -5.9 21.4 69 -10.7 12.8
20:45 1005 29.68 834 24.63 -6.1 21.1 70 -10.7 12.8
20:50 1005 29.68 834 24.63 -6.2 20.9 70 -10.8 12.6
20:55 1005 29.68 834 24.63 -6.2 20.9 70 -10.9 12.4
21:00 1005 29.68 834 24.63 -6.1 20.9 69 -11 12.2
21:05 1005 29.68 834 24.63 -6 21.1 68 -11 12.2
21:10 1005 29.68 834 24.63 -6.1 21 68 -11.1 12.1
21:15 1005 29.68 834 24.63 -6.1 21 68 -11 12.2
21:20 1005 29.68 834 24.63 -6.2 20.9 69 -11 12.1
21:25 1005 29.68 834 24.63 -6.3 20.7 69 -11 12.2
21:30 1005 29.68 835 24.66 -6.4 20.5 70 -11.1 12
21:35 1005 29.68 835 24.66 -6.4 20.4 69 -11.2 11.9
21:40 1005 29.68 835 24.66 -6.4 20.5 70 -11.1 12.1
21:45 1005 29.68 835 24.66 -6.5 20.4 70 -11.1 12
21:50 1005 29.68 835 24.66 -6.5 20.4 70 -11 12.2
21:55 1006 29.71 835 24.66 -6.6 20.1 71 -11.1 12.1
22:00 1006 29.71 835 24.66 -6.6 20.2 70 -11.2 11.8
22:05 1006 29.71 835 24.66 -6.5 20.3 69 -11.3 11.7
22:10 1006 29.71 835 24.66 -6.5 20.4 69 -11.2 11.8
22:15 1006 29.71 835 24.66 -6.4 20.4 68 -11.4 11.6
22:20 1006 29.71 835 24.66 -6.3 20.6 68 -11.4 11.6
22:25 1006 29.71 835 24.66 -6.2 20.8 68 -11.2 11.9
22:30 1006 29.71 835 24.66 -6.4 20.5 70 -11 12.2
22:35 1006 29.71 835 24.66 -6.6 20.1 72 -10.9 12.3
22:40 1006 29.71 835 24.66 -6.8 19.7 74 -10.8 12.6
22:45 1006 29.71 835 24.66 -7 19.4 76 -10.6 13
22:50 1006 29.71 835 24.66 -7.2 19.1 78 -10.4 13.4
22:55 1006 29.71 835 24.66 -7.3 18.9 78 -10.5 13.2
23:00 1006 29.71 835 24.66 -7.5 18.5 80 -10.4 13.2
23:05 1006 29.71 835 24.66 -7.7 18.1 82 -10.3 13.4
23:10 1006 29.71 835 24.66 -7.9 17.8 83 -10.3 13.5
23:15 1006 29.71 835 24.66 -8 17.7 82 -10.6 12.9
23:20 1006 29.71 835 24.66 -8 17.6 79 -11 12.2
23:25 1006 29.71 835 24.66 -7.9 17.7 78 -11.1 12
23:30 1006 29.71 835 24.66 -7.9 17.9 77 -11.1 11.9
23:35 1006 29.71 835 24.66 -7.7 18.1 76 -11.2 11.8
23:40 1006 29.71 835 24.66 -7.8 18 76 -11.4 11.6
23:45 1006 29.71 836 24.69 -7.9 17.8 76 -11.4 11.5
23:50 1006 29.71 836 24.69 -8 17.7 77 -11.3 11.7
23:55 1006 29.71 836 24.69 -8 17.6 78 -11.2 11.8
24:00 1007 29.74 836 24.69 -8.1 17.4 79 -11.1 12.1